sensor_id;sensor_type;location;lat;lon;timestamp;P1;durP1;ratioP1;P2;durP2;ratioP2
3843;SDS011;1937;51.444;6.484;2024-01-16T00:00:57;7.43;;;4.47;;
3843;SDS011;1937;51.444;6.484;2024-01-16T00:03:23;8.23;;;4.10;;
3843;SDS011;1937;51.444;6.484;2024-01-16T00:05:51;8.67;;;4.63;;
3843;SDS011;1937;51.444;6.484;2024-01-16T00:08:19;8.40;;;4.50;;
3843;SDS011;1937;51.444;6.484;2024-01-16T00:10:46;9.10;;;4.27;;
3843;SDS011;1937;51.444;6.484;2024-01-16T00:13:13;4.20;;;3.33;;
3843;SDS011;1937;51.444;6.484;2024-01-16T00:15:40;12.03;;;4.27;;
3843;SDS011;1937;51.444;6.484;2024-01-16T00:18:07;7.67;;;4.97;;
3843;SDS011;1937;51.444;6.484;2024-01-16T00:20:34;6.80;;;3.80;;
3843;SDS011;1937;51.444;6.484;2024-01-16T00:23:01;16.40;;;5.00;;
3843;SDS011;1937;51.444;6.484;2024-01-16T00:25:29;7.03;;;4.37;;
3843;SDS011;1937;51.444;6.484;2024-01-16T00:27:56;9.83;;;4.70;;
3843;SDS011;1937;51.444;6.484;2024-01-16T00:30:23;10.13;;;4.30;;
3843;SDS011;1937;51.444;6.484;2024-01-16T00:32:50;10.23;;;4.23;;
3843;SDS011;1937;51.444;6.484;2024-01-16T00:35:17;8.03;;;4.70;;
3843;SDS011;1937;51.444;6.484;2024-01-16T00:37:44;5.53;;;4.00;;
3843;SDS011;1937;51.444;6.484;2024-01-16T00:40:11;7.70;;;4.40;;
3843;SDS011;1937;51.444;6.484;2024-01-16T00:42:40;6.23;;;4.30;;
3843;SDS011;1937;51.444;6.484;2024-01-16T00:45:06;9.13;;;4.47;;
3843;SDS011;1937;51.444;6.484;2024-01-16T00:47:34;8.97;;;5.40;;
3843;SDS011;1937;51.444;6.484;2024-01-16T00:50:01;6.97;;;4.70;;
3843;SDS011;1937;51.444;6.484;2024-01-16T00:52:28;8.17;;;4.60;;
3843;SDS011;1937;51.444;6.484;2024-01-16T00:54:55;10.47;;;5.00;;
3843;SDS011;1937;51.444;6.484;2024-01-16T00:57:22;10.83;;;6.43;;
3843;SDS011;1937;51.444;6.484;2024-01-16T00:59:50;14.00;;;5.20;;
3843;SDS011;1937;51.444;6.484;2024-01-16T01:02:17;9.00;;;5.50;;
3843;SDS011;1937;51.444;6.484;2024-01-16T01:04:44;7.67;;;5.37;;
3843;SDS011;1937;51.444;6.484;2024-01-16T01:07:12;11.93;;;4.97;;
3843;SDS011;1937;51.444;6.484;2024-01-16T01:09:39;10.93;;;5.23;;
3843;SDS011;1937;51.444;6.484;2024-01-16T01:12:07;6.13;;;4.67;;
3843;SDS011;1937;51.444;6.484;2024-01-16T01:14:35;11.53;;;6.17;;
3843;SDS011;1937;51.444;6.484;2024-01-16T01:17:03;7.63;;;4.73;;
3843;SDS011;1937;51.444;6.484;2024-01-16T01:19:30;16.77;;;6.03;;
3843;SDS011;1937;51.444;6.484;2024-01-16T01:21:57;10.07;;;5.53;;
3843;SDS011;1937;51.444;6.484;2024-01-16T01:24:24;6.23;;;4.63;;
3843;SDS011;1937;51.444;6.484;2024-01-16T01:26:51;6.93;;;4.90;;
3843;SDS011;1937;51.444;6.484;2024-01-16T01:29:18;8.70;;;4.13;;
3843;SDS011;1937;51.444;6.484;2024-01-16T01:31:45;11.93;;;5.60;;
3843;SDS011;1937;51.444;6.484;2024-01-16T01:34:15;8.60;;;5.70;;
3843;SDS011;1937;51.444;6.484;2024-01-16T01:36:42;6.13;;;4.90;;
3843;SDS011;1937;51.444;6.484;2024-01-16T01:39:09;10.63;;;4.90;;
3843;SDS011;1937;51.444;6.484;2024-01-16T01:41:37;9.00;;;5.60;;
3843;SDS011;1937;51.444;6.484;2024-01-16T01:44:05;8.90;;;5.87;;
3843;SDS011;1937;51.444;6.484;2024-01-16T01:46:32;8.40;;;5.63;;
3843;SDS011;1937;51.444;6.484;2024-01-16T01:49:00;6.53;;;4.87;;
3843;SDS011;1937;51.444;6.484;2024-01-16T01:51:29;9.13;;;4.43;;
3843;SDS011;1937;51.444;6.484;2024-01-16T01:53:56;8.57;;;4.60;;
3843;SDS011;1937;51.444;6.484;2024-01-16T01:56:24;6.40;;;4.40;;
3843;SDS011;1937;51.444;6.484;2024-01-16T01:58:53;7.73;;;5.33;;
3843;SDS011;1937;51.444;6.484;2024-01-16T02:01:20;5.93;;;4.97;;
3843;SDS011;1937;51.444;6.484;2024-01-16T02:03:49;7.83;;;5.03;;
3843;SDS011;1937;51.444;6.484;2024-01-16T02:06:17;11.57;;;6.50;;
3843;SDS011;1937;51.444;6.484;2024-01-16T02:08:46;8.60;;;6.07;;
3843;SDS011;1937;51.444;6.484;2024-01-16T02:11:13;7.40;;;5.73;;
3843;SDS011;1937;51.444;6.484;2024-01-16T02:13:40;8.70;;;5.00;;
3843;SDS011;1937;51.444;6.484;2024-01-16T02:16:16;12.57;;;6.00;;
3843;SDS011;1937;51.444;6.484;2024-01-16T02:18:44;10.13;;;6.03;;
3843;SDS011;1937;51.444;6.484;2024-01-16T02:21:11;16.70;;;7.00;;
3843;SDS011;1937;51.444;6.484;2024-01-16T02:23:40;9.87;;;5.90;;
3843;SDS011;1937;51.444;6.484;2024-01-16T02:26:07;7.77;;;6.00;;
3843;SDS011;1937;51.444;6.484;2024-01-16T02:28:34;8.73;;;5.53;;
3843;SDS011;1937;51.444;6.484;2024-01-16T02:31:01;8.40;;;6.17;;
3843;SDS011;1937;51.444;6.484;2024-01-16T02:33:28;9.20;;;6.30;;
3843;SDS011;1937;51.444;6.484;2024-01-16T02:35:55;10.13;;;6.10;;
3843;SDS011;1937;51.444;6.484;2024-01-16T02:38:22;11.43;;;6.80;;
3843;SDS011;1937;51.444;6.484;2024-01-16T02:40:51;10.13;;;6.57;;
3843;SDS011;1937;51.444;6.484;2024-01-16T02:43:18;7.63;;;6.40;;
3843;SDS011;1937;51.444;6.484;2024-01-16T02:45:45;14.40;;;6.17;;
3843;SDS011;1937;51.444;6.484;2024-01-16T02:48:13;9.93;;;5.83;;
3843;SDS011;1937;51.444;6.484;2024-01-16T02:50:39;9.13;;;5.70;;
3843;SDS011;1937;51.444;6.484;2024-01-16T02:53:06;9.60;;;5.23;;
3843;SDS011;1937;51.444;6.484;2024-01-16T02:55:33;16.10;;;6.53;;
3843;SDS011;1937;51.444;6.484;2024-01-16T02:58:01;11.57;;;6.57;;
3843;SDS011;1937;51.444;6.484;2024-01-16T03:00:29;14.70;;;7.93;;
3843;SDS011;1937;51.444;6.484;2024-01-16T03:02:55;15.20;;;8.40;;
3843;SDS011;1937;51.444;6.484;2024-01-16T03:05:22;12.27;;;7.43;;
3843;SDS011;1937;51.444;6.484;2024-01-16T03:07:49;9.80;;;6.50;;
3843;SDS011;1937;51.444;6.484;2024-01-16T03:10:16;11.17;;;6.10;;
3843;SDS011;1937;51.444;6.484;2024-01-16T03:12:43;11.60;;;7.63;;
3843;SDS011;1937;51.444;6.484;2024-01-16T03:15:11;13.70;;;8.00;;
3843;SDS011;1937;51.444;6.484;2024-01-16T03:17:38;23.33;;;7.73;;
3843;SDS011;1937;51.444;6.484;2024-01-16T03:20:05;14.00;;;8.00;;
3843;SDS011;1937;51.444;6.484;2024-01-16T03:22:34;13.80;;;7.40;;
3843;SDS011;1937;51.444;6.484;2024-01-16T03:25:00;12.57;;;7.83;;
3843;SDS011;1937;51.444;6.484;2024-01-16T03:27:27;14.20;;;8.17;;
3843;SDS011;1937;51.444;6.484;2024-01-16T03:29:54;10.47;;;6.80;;
3843;SDS011;1937;51.444;6.484;2024-01-16T03:32:22;15.83;;;7.97;;
3843;SDS011;1937;51.444;6.484;2024-01-16T03:34:49;16.63;;;8.23;;
3843;SDS011;1937;51.444;6.484;2024-01-16T03:37:16;11.13;;;7.23;;
3843;SDS011;1937;51.444;6.484;2024-01-16T03:39:43;14.47;;;9.07;;
3843;SDS011;1937;51.444;6.484;2024-01-16T03:42:10;12.50;;;7.10;;
3843;SDS011;1937;51.444;6.484;2024-01-16T03:44:38;13.87;;;7.53;;
3843;SDS011;1937;51.444;6.484;2024-01-16T03:47:05;15.40;;;7.00;;
3843;SDS011;1937;51.444;6.484;2024-01-16T03:49:34;10.93;;;6.50;;
3843;SDS011;1937;51.444;6.484;2024-01-16T03:52:01;15.27;;;7.00;;
3843;SDS011;1937;51.444;6.484;2024-01-16T03:54:28;10.53;;;5.97;;
3843;SDS011;1937;51.444;6.484;2024-01-16T03:56:54;10.23;;;6.60;;
3843;SDS011;1937;51.444;6.484;2024-01-16T03:59:22;10.90;;;5.47;;
3843;SDS011;1937;51.444;6.484;2024-01-16T04:01:49;7.10;;;4.60;;
3843;SDS011;1937;51.444;6.484;2024-01-16T04:04:16;10.63;;;5.70;;
3843;SDS011;1937;51.444;6.484;2024-01-16T04:06:45;8.87;;;4.40;;
3843;SDS011;1937;51.444;6.484;2024-01-16T04:09:12;10.33;;;4.97;;
3843;SDS011;1937;51.444;6.484;2024-01-16T04:11:40;6.83;;;4.33;;
3843;SDS011;1937;51.444;6.484;2024-01-16T04:14:06;7.40;;;4.80;;
3843;SDS011;1937;51.444;6.484;2024-01-16T04:16:34;7.30;;;4.47;;
3843;SDS011;1937;51.444;6.484;2024-01-16T04:19:01;6.27;;;3.80;;
3843;SDS011;1937;51.444;6.484;2024-01-16T04:21:28;6.47;;;4.13;;
3843;SDS011;1937;51.444;6.484;2024-01-16T04:23:56;15.23;;;4.50;;
3843;SDS011;1937;51.444;6.484;2024-01-16T04:26:23;10.30;;;4.37;;
3843;SDS011;1937;51.444;6.484;2024-01-16T04:28:51;6.97;;;3.70;;
3843;SDS011;1937;51.444;6.484;2024-01-16T04:31:18;4.97;;;2.80;;
3843;SDS011;1937;51.444;6.484;2024-01-16T04:33:47;5.97;;;3.57;;
3843;SDS011;1937;51.444;6.484;2024-01-16T04:36:14;4.90;;;3.30;;
3843;SDS011;1937;51.444;6.484;2024-01-16T04:38:41;4.33;;;3.57;;
3843;SDS011;1937;51.444;6.484;2024-01-16T04:41:09;3.90;;;3.30;;
3843;SDS011;1937;51.444;6.484;2024-01-16T04:43:36;4.53;;;3.07;;
3843;SDS011;1937;51.444;6.484;2024-01-16T04:46:03;10.87;;;3.10;;
3843;SDS011;1937;51.444;6.484;2024-01-16T04:48:30;6.70;;;3.80;;
3843;SDS011;1937;51.444;6.484;2024-01-16T04:50:57;7.30;;;3.70;;
3843;SDS011;1937;51.444;6.484;2024-01-16T04:53:26;6.50;;;3.57;;
3843;SDS011;1937;51.444;6.484;2024-01-16T04:55:53;5.50;;;4.53;;
3843;SDS011;1937;51.444;6.484;2024-01-16T04:58:21;6.30;;;4.30;;
3843;SDS011;1937;51.444;6.484;2024-01-16T05:00:48;9.53;;;4.43;;
3843;SDS011;1937;51.444;6.484;2024-01-16T05:03:15;14.13;;;3.77;;
3843;SDS011;1937;51.444;6.484;2024-01-16T05:05:42;9.00;;;4.50;;
3843;SDS011;1937;51.444;6.484;2024-01-16T05:08:09;10.63;;;5.87;;
3843;SDS011;1937;51.444;6.484;2024-01-16T05:10:36;9.60;;;5.30;;
3843;SDS011;1937;51.444;6.484;2024-01-16T05:13:03;11.10;;;6.13;;
3843;SDS011;1937;51.444;6.484;2024-01-16T05:15:31;10.90;;;7.40;;
3843;SDS011;1937;51.444;6.484;2024-01-16T05:17:59;16.07;;;7.80;;
3843;SDS011;1937;51.444;6.484;2024-01-16T05:20:26;14.27;;;8.07;;
3843;SDS011;1937;51.444;6.484;2024-01-16T05:22:54;14.67;;;8.73;;
3843;SDS011;1937;51.444;6.484;2024-01-16T05:25:21;15.67;;;10.10;;
3843;SDS011;1937;51.444;6.484;2024-01-16T05:27:47;13.80;;;9.90;;
3843;SDS011;1937;51.444;6.484;2024-01-16T05:30:15;21.93;;;10.60;;
3843;SDS011;1937;51.444;6.484;2024-01-16T05:32:43;22.27;;;10.83;;
3843;SDS011;1937;51.444;6.484;2024-01-16T05:35:11;25.90;;;10.90;;
3843;SDS011;1937;51.444;6.484;2024-01-16T05:37:38;19.70;;;12.00;;
3843;SDS011;1937;51.444;6.484;2024-01-16T05:40:06;21.67;;;12.20;;
3843;SDS011;1937;51.444;6.484;2024-01-16T05:42:33;28.07;;;12.43;;
3843;SDS011;1937;51.444;6.484;2024-01-16T05:45:00;20.70;;;11.37;;
3843;SDS011;1937;51.444;6.484;2024-01-16T05:47:28;26.40;;;14.00;;
3843;SDS011;1937;51.444;6.484;2024-01-16T05:49:57;20.80;;;12.70;;
3843;SDS011;1937;51.444;6.484;2024-01-16T05:52:23;19.50;;;11.40;;
3843;SDS011;1937;51.444;6.484;2024-01-16T05:54:50;17.73;;;11.20;;
3843;SDS011;1937;51.444;6.484;2024-01-16T05:57:17;20.53;;;11.53;;
3843;SDS011;1937;51.444;6.484;2024-01-16T05:59:44;17.00;;;10.67;;
3843;SDS011;1937;51.444;6.484;2024-01-16T06:02:10;16.47;;;10.93;;
3843;SDS011;1937;51.444;6.484;2024-01-16T06:04:37;18.53;;;9.90;;
3843;SDS011;1937;51.444;6.484;2024-01-16T06:07:05;13.67;;;9.10;;
3843;SDS011;1937;51.444;6.484;2024-01-16T06:09:33;16.87;;;10.13;;
3843;SDS011;1937;51.444;6.484;2024-01-16T06:12:00;22.47;;;9.60;;
3843;SDS011;1937;51.444;6.484;2024-01-16T06:14:28;21.83;;;10.17;;
3843;SDS011;1937;51.444;6.484;2024-01-16T06:16:55;17.90;;;8.00;;
3843;SDS011;1937;51.444;6.484;2024-01-16T06:19:22;17.20;;;8.50;;
3843;SDS011;1937;51.444;6.484;2024-01-16T06:21:49;13.80;;;7.90;;
3843;SDS011;1937;51.444;6.484;2024-01-16T06:24:18;18.17;;;8.00;;
3843;SDS011;1937;51.444;6.484;2024-01-16T06:26:45;14.20;;;7.10;;
3843;SDS011;1937;51.444;6.484;2024-01-16T06:29:12;11.70;;;7.43;;
3843;SDS011;1937;51.444;6.484;2024-01-16T06:31:39;15.07;;;7.83;;
3843;SDS011;1937;51.444;6.484;2024-01-16T06:34:06;14.40;;;7.00;;
3843;SDS011;1937;51.444;6.484;2024-01-16T06:36:33;7.83;;;6.73;;
3843;SDS011;1937;51.444;6.484;2024-01-16T06:39:00;10.20;;;7.57;;
3843;SDS011;1937;51.444;6.484;2024-01-16T06:41:29;14.83;;;6.50;;
3843;SDS011;1937;51.444;6.484;2024-01-16T06:43:55;13.77;;;6.90;;
3843;SDS011;1937;51.444;6.484;2024-01-16T06:46:22;12.87;;;6.30;;
3843;SDS011;1937;51.444;6.484;2024-01-16T06:48:50;13.80;;;7.03;;
3843;SDS011;1937;51.444;6.484;2024-01-16T06:51:17;14.40;;;5.73;;
3843;SDS011;1937;51.444;6.484;2024-01-16T06:53:44;9.10;;;6.43;;
3843;SDS011;1937;51.444;6.484;2024-01-16T06:56:11;9.83;;;6.53;;
3843;SDS011;1937;51.444;6.484;2024-01-16T06:58:39;18.80;;;6.73;;
3843;SDS011;1937;51.444;6.484;2024-01-16T07:01:06;13.00;;;6.60;;
3843;SDS011;1937;51.444;6.484;2024-01-16T07:03:35;11.27;;;6.40;;
3843;SDS011;1937;51.444;6.484;2024-01-16T07:06:03;8.80;;;5.23;;
3843;SDS011;1937;51.444;6.484;2024-01-16T07:08:30;22.33;;;6.60;;
3843;SDS011;1937;51.444;6.484;2024-01-16T07:10:57;12.40;;;5.10;;
3843;SDS011;1937;51.444;6.484;2024-01-16T07:13:23;12.27;;;5.50;;
3843;SDS011;1937;51.444;6.484;2024-01-16T07:15:52;9.93;;;6.13;;
3843;SDS011;1937;51.444;6.484;2024-01-16T07:18:19;11.43;;;5.40;;
3843;SDS011;1937;51.444;6.484;2024-01-16T07:20:46;11.80;;;5.67;;
3843;SDS011;1937;51.444;6.484;2024-01-16T07:23:13;12.63;;;5.33;;
3843;SDS011;1937;51.444;6.484;2024-01-16T07:25:40;12.27;;;5.50;;
3843;SDS011;1937;51.444;6.484;2024-01-16T07:28:07;9.40;;;5.23;;
3843;SDS011;1937;51.444;6.484;2024-01-16T07:30:34;9.30;;;5.27;;
3843;SDS011;1937;51.444;6.484;2024-01-16T07:33:03;12.90;;;5.83;;
3843;SDS011;1937;51.444;6.484;2024-01-16T07:35:30;17.00;;;5.63;;
3843;SDS011;1937;51.444;6.484;2024-01-16T07:37:57;8.80;;;4.37;;
3843;SDS011;1937;51.444;6.484;2024-01-16T07:40:24;16.17;;;4.83;;
3843;SDS011;1937;51.444;6.484;2024-01-16T07:42:52;16.87;;;6.07;;
3843;SDS011;1937;51.444;6.484;2024-01-16T07:45:19;14.37;;;6.40;;
3843;SDS011;1937;51.444;6.484;2024-01-16T07:47:46;13.23;;;5.07;;
3843;SDS011;1937;51.444;6.484;2024-01-16T07:50:14;13.47;;;5.60;;
3843;SDS011;1937;51.444;6.484;2024-01-16T07:52:41;14.50;;;5.17;;
3843;SDS011;1937;51.444;6.484;2024-01-16T07:55:09;11.83;;;4.40;;
3843;SDS011;1937;51.444;6.484;2024-01-16T07:57:36;8.33;;;4.73;;
3843;SDS011;1937;51.444;6.484;2024-01-16T08:00:03;11.97;;;4.60;;
3843;SDS011;1937;51.444;6.484;2024-01-16T08:02:32;9.33;;;5.40;;
3843;SDS011;1937;51.444;6.484;2024-01-16T08:04:59;8.43;;;4.50;;
3843;SDS011;1937;51.444;6.484;2024-01-16T08:07:27;9.30;;;5.60;;
3843;SDS011;1937;51.444;6.484;2024-01-16T08:09:54;10.53;;;5.30;;
3843;SDS011;1937;51.444;6.484;2024-01-16T08:12:21;5.10;;;4.10;;
3843;SDS011;1937;51.444;6.484;2024-01-16T08:14:48;8.63;;;3.90;;
3843;SDS011;1937;51.444;6.484;2024-01-16T08:17:15;10.50;;;4.57;;
3843;SDS011;1937;51.444;6.484;2024-01-16T08:19:43;10.03;;;4.80;;
3843;SDS011;1937;51.444;6.484;2024-01-16T08:22:09;10.23;;;4.13;;
3843;SDS011;1937;51.444;6.484;2024-01-16T08:24:38;10.10;;;4.20;;
3843;SDS011;1937;51.444;6.484;2024-01-16T08:27:05;9.83;;;4.20;;
3843;SDS011;1937;51.444;6.484;2024-01-16T08:29:32;8.67;;;4.50;;
3843;SDS011;1937;51.444;6.484;2024-01-16T08:31:59;8.70;;;4.20;;
3843;SDS011;1937;51.444;6.484;2024-01-16T08:34:26;5.77;;;3.83;;
3843;SDS011;1937;51.444;6.484;2024-01-16T08:36:52;8.70;;;3.53;;
3843;SDS011;1937;51.444;6.484;2024-01-16T08:39:22;13.77;;;5.60;;
3843;SDS011;1937;51.444;6.484;2024-01-16T08:41:50;9.90;;;4.10;;
3843;SDS011;1937;51.444;6.484;2024-01-16T08:44:17;7.53;;;3.87;;
3843;SDS011;1937;51.444;6.484;2024-01-16T08:46:44;22.20;;;7.13;;
3843;SDS011;1937;51.444;6.484;2024-01-16T08:49:11;15.60;;;4.60;;
3843;SDS011;1937;51.444;6.484;2024-01-16T08:51:39;7.63;;;4.93;;
3843;SDS011;1937;51.444;6.484;2024-01-16T08:54:07;20.43;;;5.87;;
3843;SDS011;1937;51.444;6.484;2024-01-16T08:56:34;8.13;;;4.77;;
3843;SDS011;1937;51.444;6.484;2024-01-16T08:59:02;18.03;;;5.00;;
3843;SDS011;1937;51.444;6.484;2024-01-16T09:01:29;10.33;;;5.37;;
3843;SDS011;1937;51.444;6.484;2024-01-16T09:03:56;9.83;;;4.10;;
3843;SDS011;1937;51.444;6.484;2024-01-16T09:06:24;8.13;;;4.10;;
3843;SDS011;1937;51.444;6.484;2024-01-16T09:08:51;7.43;;;3.47;;
3843;SDS011;1937;51.444;6.484;2024-01-16T09:11:18;7.40;;;4.67;;
3843;SDS011;1937;51.444;6.484;2024-01-16T09:13:44;13.10;;;5.10;;
3843;SDS011;1937;51.444;6.484;2024-01-16T09:16:13;8.17;;;4.33;;
3843;SDS011;1937;51.444;6.484;2024-01-16T09:18:40;6.03;;;4.37;;
3843;SDS011;1937;51.444;6.484;2024-01-16T09:21:06;6.00;;;4.00;;
3843;SDS011;1937;51.444;6.484;2024-01-16T09:23:33;12.00;;;4.87;;
3843;SDS011;1937;51.444;6.484;2024-01-16T09:26:00;7.33;;;4.00;;
3843;SDS011;1937;51.444;6.484;2024-01-16T09:28:27;14.07;;;4.60;;
3843;SDS011;1937;51.444;6.484;2024-01-16T09:30:54;10.93;;;5.50;;
3843;SDS011;1937;51.444;6.484;2024-01-16T09:33:23;8.23;;;4.30;;
3843;SDS011;1937;51.444;6.484;2024-01-16T09:35:51;7.93;;;3.70;;
3843;SDS011;1937;51.444;6.484;2024-01-16T09:38:18;8.10;;;4.53;;
3843;SDS011;1937;51.444;6.484;2024-01-16T09:40:45;11.23;;;4.73;;
3843;SDS011;1937;51.444;6.484;2024-01-16T09:43:13;7.07;;;4.70;;
3843;SDS011;1937;51.444;6.484;2024-01-16T09:45:39;11.80;;;4.10;;
3843;SDS011;1937;51.444;6.484;2024-01-16T09:48:06;12.07;;;4.33;;
3843;SDS011;1937;51.444;6.484;2024-01-16T09:50:35;6.27;;;4.67;;
3843;SDS011;1937;51.444;6.484;2024-01-16T09:53:03;9.13;;;4.23;;
3843;SDS011;1937;51.444;6.484;2024-01-16T09:55:29;11.00;;;4.73;;
3843;SDS011;1937;51.444;6.484;2024-01-16T09:57:57;6.57;;;4.60;;
3843;SDS011;1937;51.444;6.484;2024-01-16T10:00:24;9.33;;;4.13;;
3843;SDS011;1937;51.444;6.484;2024-01-16T10:02:52;17.70;;;5.00;;
3843;SDS011;1937;51.444;6.484;2024-01-16T10:05:23;8.43;;;4.20;;
3843;SDS011;1937;51.444;6.484;2024-01-16T10:07:52;11.90;;;4.87;;
3843;SDS011;1937;51.444;6.484;2024-01-16T10:10:19;6.07;;;4.23;;
3843;SDS011;1937;51.444;6.484;2024-01-16T10:12:47;6.77;;;3.50;;
3843;SDS011;1937;51.444;6.484;2024-01-16T10:15:16;10.37;;;5.07;;
3843;SDS011;1937;51.444;6.484;2024-01-16T10:17:47;7.90;;;4.63;;
3843;SDS011;1937;51.444;6.484;2024-01-16T10:20:14;8.40;;;4.10;;
3843;SDS011;1937;51.444;6.484;2024-01-16T10:22:52;14.10;;;4.90;;
3843;SDS011;1937;51.444;6.484;2024-01-16T10:25:21;6.33;;;3.57;;
3843;SDS011;1937;51.444;6.484;2024-01-16T10:27:48;10.10;;;5.40;;
3843;SDS011;1937;51.444;6.484;2024-01-16T10:30:16;8.50;;;4.70;;
3843;SDS011;1937;51.444;6.484;2024-01-16T10:32:47;5.50;;;3.80;;
3843;SDS011;1937;51.444;6.484;2024-01-16T10:35:14;12.17;;;4.90;;
3843;SDS011;1937;51.444;6.484;2024-01-16T10:37:41;16.07;;;4.67;;
3843;SDS011;1937;51.444;6.484;2024-01-16T10:40:12;7.57;;;4.00;;
3843;SDS011;1937;51.444;6.484;2024-01-16T10:42:41;7.47;;;4.10;;
3843;SDS011;1937;51.444;6.484;2024-01-16T10:45:11;12.70;;;4.10;;
3843;SDS011;1937;51.444;6.484;2024-01-16T10:47:43;8.90;;;4.53;;
3843;SDS011;1937;51.444;6.484;2024-01-16T10:50:11;5.77;;;4.20;;
3843;SDS011;1937;51.444;6.484;2024-01-16T10:52:39;5.70;;;3.37;;
3843;SDS011;1937;51.444;6.484;2024-01-16T10:55:15;7.90;;;4.23;;
3843;SDS011;1937;51.444;6.484;2024-01-16T10:57:48;10.20;;;4.40;;
3843;SDS011;1937;51.444;6.484;2024-01-16T11:00:16;6.90;;;4.50;;
3843;SDS011;1937;51.444;6.484;2024-01-16T11:02:49;13.40;;;5.50;;
3843;SDS011;1937;51.444;6.484;2024-01-16T11:05:17;8.53;;;4.00;;
3843;SDS011;1937;51.444;6.484;2024-01-16T11:07:45;9.33;;;4.27;;
3843;SDS011;1937;51.444;6.484;2024-01-16T11:10:14;5.60;;;3.80;;
3843;SDS011;1937;51.444;6.484;2024-01-16T11:12:41;14.00;;;4.80;;
3843;SDS011;1937;51.444;6.484;2024-01-16T11:15:10;8.93;;;3.97;;
3843;SDS011;1937;51.444;6.484;2024-01-16T11:17:38;8.13;;;4.27;;
3843;SDS011;1937;51.444;6.484;2024-01-16T11:20:08;8.20;;;4.50;;
3843;SDS011;1937;51.444;6.484;2024-01-16T11:22:37;20.50;;;4.43;;
3843;SDS011;1937;51.444;6.484;2024-01-16T11:25:09;7.93;;;4.23;;
3843;SDS011;1937;51.444;6.484;2024-01-16T11:27:39;12.40;;;5.23;;
3843;SDS011;1937;51.444;6.484;2024-01-16T11:30:07;10.97;;;4.80;;
3843;SDS011;1937;51.444;6.484;2024-01-16T11:32:36;10.47;;;4.90;;
3843;SDS011;1937;51.444;6.484;2024-01-16T11:35:05;12.20;;;6.07;;
3843;SDS011;1937;51.444;6.484;2024-01-16T11:37:33;9.03;;;5.67;;
3843;SDS011;1937;51.444;6.484;2024-01-16T11:40:21;17.37;;;5.23;;
3843;SDS011;1937;51.444;6.484;2024-01-16T11:42:51;7.13;;;4.27;;
3843;SDS011;1937;51.444;6.484;2024-01-16T11:48:16;12.60;;;4.80;;
3843;SDS011;1937;51.444;6.484;2024-01-16T11:50:44;11.80;;;5.73;;
3843;SDS011;1937;51.444;6.484;2024-01-16T11:59:18;8.60;;;4.53;;
3843;SDS011;1937;51.444;6.484;2024-01-16T12:02:09;6.40;;;4.20;;
3843;SDS011;1937;51.444;6.484;2024-01-16T12:04:40;13.13;;;4.60;;
3843;SDS011;1937;51.444;6.484;2024-01-16T12:07:07;10.17;;;4.70;;
3843;SDS011;1937;51.444;6.484;2024-01-16T12:09:36;6.97;;;4.40;;
3843;SDS011;1937;51.444;6.484;2024-01-16T12:12:02;9.70;;;5.00;;
3843;SDS011;1937;51.444;6.484;2024-01-16T12:14:31;12.83;;;5.60;;
3843;SDS011;1937;51.444;6.484;2024-01-16T12:19:45;7.93;;;4.73;;
3843;SDS011;1937;51.444;6.484;2024-01-16T12:22:13;8.20;;;4.80;;
3843;SDS011;1937;51.444;6.484;2024-01-16T12:24:40;9.90;;;5.03;;
3843;SDS011;1937;51.444;6.484;2024-01-16T12:27:07;13.37;;;7.07;;
3843;SDS011;1937;51.444;6.484;2024-01-16T12:29:36;11.03;;;5.70;;
3843;SDS011;1937;51.444;6.484;2024-01-16T12:32:06;12.40;;;6.07;;
3843;SDS011;1937;51.444;6.484;2024-01-16T12:34:34;12.33;;;5.53;;
3843;SDS011;1937;51.444;6.484;2024-01-16T12:37:05;7.80;;;5.00;;
3843;SDS011;1937;51.444;6.484;2024-01-16T12:39:33;9.37;;;4.77;;
3843;SDS011;1937;51.444;6.484;2024-01-16T12:42:01;6.87;;;5.00;;
3843;SDS011;1937;51.444;6.484;2024-01-16T12:44:29;11.30;;;5.60;;
3843;SDS011;1937;51.444;6.484;2024-01-16T12:46:57;5.23;;;4.73;;
3843;SDS011;1937;51.444;6.484;2024-01-16T12:49:27;10.60;;;5.00;;
3843;SDS011;1937;51.444;6.484;2024-01-16T12:54:44;8.80;;;5.60;;
3843;SDS011;1937;51.444;6.484;2024-01-16T12:57:16;17.07;;;7.07;;
3843;SDS011;1937;51.444;6.484;2024-01-16T12:59:45;9.43;;;6.10;;
3843;SDS011;1937;51.444;6.484;2024-01-16T13:02:20;10.13;;;5.97;;
3843;SDS011;1937;51.444;6.484;2024-01-16T13:04:48;8.00;;;5.00;;
3843;SDS011;1937;51.444;6.484;2024-01-16T13:07:23;12.00;;;5.10;;
3843;SDS011;1937;51.444;6.484;2024-01-16T13:09:50;8.03;;;4.73;;
3843;SDS011;1937;51.444;6.484;2024-01-16T13:12:33;8.37;;;5.10;;
3843;SDS011;1937;51.444;6.484;2024-01-16T13:15:00;13.67;;;5.87;;
3843;SDS011;1937;51.444;6.484;2024-01-16T13:17:32;8.80;;;5.97;;
3843;SDS011;1937;51.444;6.484;2024-01-16T13:19:59;11.37;;;5.23;;
3843;SDS011;1937;51.444;6.484;2024-01-16T13:22:26;10.30;;;5.63;;
3843;SDS011;1937;51.444;6.484;2024-01-16T13:24:53;13.17;;;6.60;;
3843;SDS011;1937;51.444;6.484;2024-01-16T13:27:20;11.30;;;5.03;;
3843;SDS011;1937;51.444;6.484;2024-01-16T13:29:48;9.57;;;5.30;;
3843;SDS011;1937;51.444;6.484;2024-01-16T13:32:15;15.27;;;6.37;;
3843;SDS011;1937;51.444;6.484;2024-01-16T13:34:44;10.63;;;5.33;;
3843;SDS011;1937;51.444;6.484;2024-01-16T13:37:15;12.23;;;4.67;;
3843;SDS011;1937;51.444;6.484;2024-01-16T13:39:46;9.43;;;5.90;;
3843;SDS011;1937;51.444;6.484;2024-01-16T13:42:13;11.37;;;5.57;;
3843;SDS011;1937;51.444;6.484;2024-01-16T13:44:43;10.73;;;5.30;;
3843;SDS011;1937;51.444;6.484;2024-01-16T13:47:10;11.27;;;5.80;;
3843;SDS011;1937;51.444;6.484;2024-01-16T13:49:37;11.50;;;5.00;;
3843;SDS011;1937;51.444;6.484;2024-01-16T13:52:06;8.50;;;6.00;;
3843;SDS011;1937;51.444;6.484;2024-01-16T13:54:36;9.93;;;5.50;;
3843;SDS011;1937;51.444;6.484;2024-01-16T13:57:03;9.67;;;5.47;;
3843;SDS011;1937;51.444;6.484;2024-01-16T13:59:30;9.67;;;5.00;;
3843;SDS011;1937;51.444;6.484;2024-01-16T14:01:57;11.97;;;5.37;;
3843;SDS011;1937;51.444;6.484;2024-01-16T14:04:24;9.10;;;5.40;;
3843;SDS011;1937;51.444;6.484;2024-01-16T14:06:51;9.20;;;5.30;;
3843;SDS011;1937;51.444;6.484;2024-01-16T14:09:20;14.27;;;6.10;;
3843;SDS011;1937;51.444;6.484;2024-01-16T14:11:47;11.00;;;4.60;;
3843;SDS011;1937;51.444;6.484;2024-01-16T14:14:14;9.10;;;5.27;;
3843;SDS011;1937;51.444;6.484;2024-01-16T14:16:40;10.07;;;5.63;;
3843;SDS011;1937;51.444;6.484;2024-01-16T14:19:07;18.83;;;6.07;;
3843;SDS011;1937;51.444;6.484;2024-01-16T14:21:34;19.60;;;5.30;;
3843;SDS011;1937;51.444;6.484;2024-01-16T14:24:01;15.10;;;6.20;;
3843;SDS011;1937;51.444;6.484;2024-01-16T14:26:29;13.90;;;6.60;;
3843;SDS011;1937;51.444;6.484;2024-01-16T14:28:56;6.80;;;5.30;;
3843;SDS011;1937;51.444;6.484;2024-01-16T14:31:23;15.77;;;5.53;;
3843;SDS011;1937;51.444;6.484;2024-01-16T14:33:51;7.13;;;4.87;;
3843;SDS011;1937;51.444;6.484;2024-01-16T14:36:18;8.93;;;4.73;;
3843;SDS011;1937;51.444;6.484;2024-01-16T14:38:45;9.37;;;5.80;;
3843;SDS011;1937;51.444;6.484;2024-01-16T14:41:14;7.03;;;4.63;;
3843;SDS011;1937;51.444;6.484;2024-01-16T14:43:43;11.53;;;4.33;;
3843;SDS011;1937;51.444;6.484;2024-01-16T14:46:08;9.43;;;4.23;;
3843;SDS011;1937;51.444;6.484;2024-01-16T14:48:37;6.90;;;4.70;;
3843;SDS011;1937;51.444;6.484;2024-01-16T14:51:04;8.23;;;4.70;;
3843;SDS011;1937;51.444;6.484;2024-01-16T14:53:31;5.30;;;4.70;;
3843;SDS011;1937;51.444;6.484;2024-01-16T14:55:58;7.17;;;5.10;;
3843;SDS011;1937;51.444;6.484;2024-01-16T14:58:24;10.13;;;5.10;;
3843;SDS011;1937;51.444;6.484;2024-01-16T15:00:53;8.33;;;5.80;;
3843;SDS011;1937;51.444;6.484;2024-01-16T15:03:21;5.57;;;4.50;;
3843;SDS011;1937;51.444;6.484;2024-01-16T15:05:48;4.90;;;4.40;;
3843;SDS011;1937;51.444;6.484;2024-01-16T15:08:17;9.13;;;5.07;;
3843;SDS011;1937;51.444;6.484;2024-01-16T15:10:44;9.97;;;4.73;;
3843;SDS011;1937;51.444;6.484;2024-01-16T15:13:11;5.43;;;4.53;;
3843;SDS011;1937;51.444;6.484;2024-01-16T15:15:38;8.53;;;4.70;;
3843;SDS011;1937;51.444;6.484;2024-01-16T15:18:06;10.57;;;5.53;;
3843;SDS011;1937;51.444;6.484;2024-01-16T15:20:33;8.57;;;4.60;;
3843;SDS011;1937;51.444;6.484;2024-01-16T15:23:00;16.27;;;5.27;;
3843;SDS011;1937;51.444;6.484;2024-01-16T15:25:28;9.20;;;4.60;;